Time;durP1;ratioP1;P1;durP2;ratioP2;P2;SDS_P1;SDS_P2;PMS_P1;PMS_P2;Temp;Humidity;BMP_temperature;BMP_pressure;BME280_temperature;BME280_humidity;BME280_pressure;Samples;Min_cycle;Max_cycle;Signal;HPM_P1;HPM_P2
2023/03/24 00:02:21;;;;;;;2.30;2.20;;;;;;;;;;4974489;28;20245;-73
2023/03/24 00:04:48;;;;;;;2.10;2.00;;;;;;;;;;4977056;28;20278;-73
2023/03/24 00:07:14;;;;;;;1.70;1.70;;;;;;;;;;4970536;28;20186;-73
2023/03/24 00:09:41;;;;;;;1.30;1.30;;;;;;;;;;4963093;28;20198;-73
2023/03/24 00:12:08;;;;;;;1.83;1.73;;;;;;;;;;4976688;28;20194;-74
2023/03/24 00:14:34;;;;;;;1.30;1.30;;;;;;;;;;4966508;28;20195;-73
2023/03/24 00:17:00;;;;;;;2.23;2.13;;;;;;;;;;4974624;28;20226;-73
2023/03/24 00:19:26;;;;;;;1.20;1.20;;;;;;;;;;4973316;28;20300;-73
2023/03/24 00:21:54;;;;;;;1.87;1.77;;;;;;;;;;4952482;28;20228;-74
2023/03/24 00:24:20;;;;;;;1.20;1.20;;;;;;;;;;4963711;28;20623;-73
2023/03/24 00:26:49;;;;;;;1.30;1.30;;;;;;;;;;4969904;28;20272;-74
2023/03/24 00:29:15;;;;;;;1.20;1.20;;;;;;;;;;4967844;28;20189;-73
2023/03/24 00:31:42;;;;;;;1.20;1.20;;;;;;;;;;4965896;28;20432;-73
2023/03/24 00:34:08;;;;;;;1.20;1.20;;;;;;;;;;4965589;28;20197;-73
2023/03/24 00:36:34;;;;;;;1.10;1.10;;;;;;;;;;4972691;28;20194;-73
2023/03/24 00:39:00;;;;;;;1.40;1.40;;;;;;;;;;4963182;28;20350;-74
2023/03/24 00:41:26;;;;;;;1.47;1.47;;;;;;;;;;4965899;28;21918;-74
2023/03/24 00:43:58;;;;;;;1.50;1.50;;;;;;;;;;4971106;28;20686;-74
2023/03/24 00:46:27;;;;;;;1.30;1.30;;;;;;;;;;4965958;28;20179;-74
2023/03/24 00:49:00;;;;;;;1.50;1.50;;;;;;;;;;4972407;28;20183;-72
2023/03/24 00:51:27;;;;;;;1.60;1.60;;;;;;;;;;4975176;28;20528;-73
2023/03/24 00:53:56;;;;;;;1.50;1.50;;;;;;;;;;4970706;28;20601;-72
2023/03/24 00:56:23;;;;;;;1.27;1.27;;;;;;;;;;4976066;28;20178;-73
2023/03/24 00:58:49;;;;;;;1.40;1.40;;;;;;;;;;4977969;28;20206;-73
2023/03/24 01:01:15;;;;;;;1.40;1.40;;;;;;;;;;4974323;28;20194;-73
2023/03/24 01:03:46;;;;;;;1.30;1.30;;;;;;;;;;4967488;28;20244;-74
2023/03/24 01:06:12;;;;;;;1.30;1.30;;;;;;;;;;4969659;28;20202;-74
2023/03/24 01:08:38;;;;;;;1.40;1.40;;;;;;;;;;4965048;28;20209;-74
2023/03/24 01:11:05;;;;;;;1.20;1.20;;;;;;;;;;4968230;28;20187;-72
2023/03/24 01:13:31;;;;;;;1.50;1.50;;;;;;;;;;4972904;28;20186;-73
2023/03/24 01:15:57;;;;;;;1.30;1.30;;;;;;;;;;4965082;28;20198;-73
2023/03/24 01:18:23;;;;;;;1.50;1.50;;;;;;;;;;4967303;28;20197;-72
2023/03/24 01:20:49;;;;;;;1.30;1.30;;;;;;;;;;4968243;28;20867;-73
2023/03/24 01:23:16;;;;;;;1.40;1.40;;;;;;;;;;4970117;28;20503;-72
2023/03/24 01:25:44;;;;;;;1.10;1.10;;;;;;;;;;4968100;28;20690;-73
2023/03/24 01:28:14;;;;;;;1.30;1.30;;;;;;;;;;4965503;28;20193;-74
2023/03/24 01:30:40;;;;;;;1.40;1.40;;;;;;;;;;4967449;28;20331;-73
2023/03/24 01:33:06;;;;;;;1.40;1.40;;;;;;;;;;4967655;28;20189;-73
2023/03/24 01:35:32;;;;;;;1.27;1.27;;;;;;;;;;4967653;28;20191;-72
2023/03/24 01:37:59;;;;;;;1.30;1.30;;;;;;;;;;4953259;28;20242;-73
2023/03/24 01:40:26;;;;;;;1.20;1.20;;;;;;;;;;4967419;28;20573;-73
2023/03/24 01:42:52;;;;;;;1.27;1.27;;;;;;;;;;4973177;28;20222;-73
2023/03/24 01:45:37;;;;;;;1.40;1.40;;;;;;;;;;4966419;28;20191;-74
2023/03/24 01:48:03;;;;;;;1.30;1.30;;;;;;;;;;4967250;28;20955;-73
2023/03/24 01:50:29;;;;;;;1.27;1.27;;;;;;;;;;4952100;28;20530;-73
2023/03/24 01:52:55;;;;;;;1.20;1.20;;;;;;;;;;4972696;28;20186;-72
2023/03/24 01:55:20;;;;;;;1.30;1.30;;;;;;;;;;4972044;28;20249;-73
2023/03/24 01:57:47;;;;;;;1.30;1.30;;;;;;;;;;4976044;28;20765;-72
2023/03/24 02:00:14;;;;;;;1.30;1.30;;;;;;;;;;4972422;28;20233;-74
2023/03/24 02:02:41;;;;;;;1.50;1.50;;;;;;;;;;4970423;28;20222;-73
2023/03/24 02:05:07;;;;;;;1.20;1.20;;;;;;;;;;4970888;28;20720;-72
2023/03/24 02:07:39;;;;;;;1.20;1.20;;;;;;;;;;4966058;28;20248;-73
2023/03/24 02:10:07;;;;;;;1.40;1.40;;;;;;;;;;4972701;28;20644;-74
2023/03/24 02:12:33;;;;;;;1.50;1.50;;;;;;;;;;4974934;28;20269;-74
2023/03/24 02:14:59;;;;;;;1.50;1.50;;;;;;;;;;4965800;28;20187;-73
2023/03/24 02:17:34;;;;;;;1.80;1.70;;;;;;;;;;4964091;28;20186;-73
2023/03/24 02:20:11;;;;;;;1.60;1.60;;;;;;;;;;4965634;28;20285;-72
2023/03/24 02:22:46;;;;;;;1.30;1.30;;;;;;;;;;4972303;28;20689;-73
2023/03/24 02:25:30;;;;;;;1.63;1.63;;;;;;;;;;4964202;28;20277;-73
2023/03/24 02:28:15;;;;;;;1.60;1.60;;;;;;;;;;4967401;28;20205;-72
2023/03/24 02:30:44;;;;;;;1.63;1.63;;;;;;;;;;4973632;28;20659;-73
2023/03/24 02:33:28;;;;;;;1.90;1.80;;;;;;;;;;4974497;28;20257;-73
2023/03/24 02:35:54;;;;;;;1.27;1.27;;;;;;;;;;4975806;28;20190;-73
2023/03/24 02:38:33;;;;;;;1.20;1.20;;;;;;;;;;4976670;28;20230;-71
2023/03/24 02:41:07;;;;;;;1.40;1.40;;;;;;;;;;4957954;28;20206;-72
2023/03/24 02:43:43;;;;;;;1.20;1.20;;;;;;;;;;4972178;28;20209;-72
2023/03/24 02:46:12;;;;;;;1.13;1.13;;;;;;;;;;4969856;28;20198;-72
2023/03/24 02:48:47;;;;;;;1.17;1.17;;;;;;;;;;4976028;28;20201;-73
2023/03/24 02:51:16;;;;;;;1.20;1.20;;;;;;;;;;4970867;28;20200;-72
2023/03/24 02:54:04;;;;;;;1.10;1.10;;;;;;;;;;4967896;28;20198;-72
2023/03/24 02:56:38;;;;;;;1.30;1.30;;;;;;;;;;4952003;28;20198;-73
2023/03/24 02:59:05;;;;;;;1.10;1.10;;;;;;;;;;4974448;28;20199;-71
2023/03/24 03:01:52;;;;;;;1.40;1.40;;;;;;;;;;4944809;28;20575;-73
2023/03/24 03:04:21;;;;;;;1.20;1.20;;;;;;;;;;4976162;28;20193;-73
2023/03/24 03:06:48;;;;;;;1.17;1.17;;;;;;;;;;4975249;28;20676;-72
2023/03/24 03:09:15;;;;;;;1.20;1.20;;;;;;;;;;4960864;28;20196;-73
2023/03/24 03:11:42;;;;;;;1.40;1.40;;;;;;;;;;4971793;28;20328;-73
2023/03/24 03:14:09;;;;;;;1.20;1.20;;;;;;;;;;4972664;28;22037;-72
2023/03/24 03:16:38;;;;;;;1.40;1.40;;;;;;;;;;4974682;28;20194;-72
2023/03/24 03:19:10;;;;;;;1.00;1.00;;;;;;;;;;4975611;28;20647;-73
2023/03/24 03:21:38;;;;;;;1.10;1.10;;;;;;;;;;4975772;28;20210;-73
2023/03/24 03:24:14;;;;;;;1.40;1.40;;;;;;;;;;4971811;28;20193;-73
2023/03/24 03:26:40;;;;;;;1.60;1.60;;;;;;;;;;4974429;28;20190;-73
2023/03/24 03:29:09;;;;;;;1.40;1.40;;;;;;;;;;4952495;28;20199;-73
2023/03/24 03:31:36;;;;;;;1.30;1.30;;;;;;;;;;4975210;28;20209;-73
2023/03/24 03:34:06;;;;;;;1.67;1.67;;;;;;;;;;4966487;28;20187;-72
2023/03/24 03:36:33;;;;;;;1.50;1.50;;;;;;;;;;4966853;28;20202;-72
2023/03/24 03:39:08;;;;;;;1.30;1.30;;;;;;;;;;4967513;28;20331;-72
2023/03/24 03:41:34;;;;;;;1.50;1.50;;;;;;;;;;4963401;28;20241;-72
2023/03/24 03:44:00;;;;;;;1.50;1.50;;;;;;;;;;4957571;28;20225;-74
2023/03/24 03:46:26;;;;;;;1.40;1.40;;;;;;;;;;4965599;28;20316;-72
2023/03/24 03:48:52;;;;;;;1.53;1.53;;;;;;;;;;4966933;28;20194;-72
2023/03/24 03:51:18;;;;;;;1.60;1.60;;;;;;;;;;4968714;28;20198;-72
2023/03/24 03:53:54;;;;;;;1.80;1.70;;;;;;;;;;4970331;28;20221;-72
2023/03/24 03:56:21;;;;;;;1.50;1.50;;;;;;;;;;4950362;28;20217;-73
2023/03/24 03:58:48;;;;;;;1.50;1.50;;;;;;;;;;4951822;28;20539;-73
2023/03/24 04:01:18;;;;;;;1.40;1.40;;;;;;;;;;4962905;28;20201;-72
2023/03/24 04:03:48;;;;;;;1.40;1.40;;;;;;;;;;4972982;28;20984;-72
2023/03/24 04:06:26;;;;;;;1.50;1.50;;;;;;;;;;4974883;28;20270;-72
2023/03/24 04:09:08;;;;;;;1.40;1.40;;;;;;;;;;4976939;28;20281;-72
2023/03/24 04:11:37;;;;;;;1.43;1.43;;;;;;;;;;4964840;28;20244;-73
2023/03/24 04:14:06;;;;;;;1.50;1.50;;;;;;;;;;4968303;28;20198;-72
2023/03/24 04:16:32;;;;;;;1.30;1.30;;;;;;;;;;4965803;28;20337;-73
2023/03/24 04:19:12;;;;;;;1.37;1.37;;;;;;;;;;4971680;28;20261;-73
2023/03/24 04:21:41;;;;;;;1.50;1.50;;;;;;;;;;4965268;28;20261;-73
2023/03/24 04:24:26;;;;;;;1.50;1.50;;;;;;;;;;4962532;28;20639;-73
2023/03/24 04:26:53;;;;;;;1.60;1.60;;;;;;;;;;4964146;28;20912;-72
2023/03/24 04:29:25;;;;;;;1.50;1.50;;;;;;;;;;4964197;28;20802;-73
2023/03/24 04:32:01;;;;;;;1.50;1.50;;;;;;;;;;4967652;28;20203;-73
2023/03/24 04:34:45;;;;;;;1.90;1.80;;;;;;;;;;4970086;28;20281;-75
2023/03/24 04:37:12;;;;;;;1.70;1.70;;;;;;;;;;4949071;28;20639;-74
2023/03/24 04:39:39;;;;;;;1.63;1.63;;;;;;;;;;4954812;28;20217;-74
2023/03/24 04:42:06;;;;;;;1.53;1.53;;;;;;;;;;4968539;28;20218;-74
2023/03/24 04:44:32;;;;;;;1.60;1.60;;;;;;;;;;4967878;28;20647;-74
2023/03/24 04:46:58;;;;;;;1.50;1.50;;;;;;;;;;4949819;28;20191;-74
2023/03/24 04:49:24;;;;;;;1.80;1.70;;;;;;;;;;4957370;28;20182;-73
2023/03/24 04:51:50;;;;;;;1.50;1.50;;;;;;;;;;4974405;28;20217;-72
2023/03/24 04:54:16;;;;;;;1.60;1.60;;;;;;;;;;4975139;28;20556;-73
2023/03/24 04:56:46;;;;;;;1.60;1.60;;;;;;;;;;4975717;28;20201;-73
2023/03/24 04:59:12;;;;;;;1.30;1.30;;;;;;;;;;4975167;28;20281;-73
2023/03/24 05:01:39;;;;;;;1.60;1.60;;;;;;;;;;4966008;28;20221;-72
2023/03/24 05:04:05;;;;;;;1.60;1.60;;;;;;;;;;4974926;28;20655;-73
2023/03/24 05:06:31;;;;;;;1.70;1.70;;;;;;;;;;4970854;28;20264;-73
2023/03/24 05:08:58;;;;;;;2.00;1.90;;;;;;;;;;4973495;28;20214;-72
2023/03/24 05:11:25;;;;;;;1.90;1.80;;;;;;;;;;4972976;28;20182;-72
2023/03/24 05:13:51;;;;;;;2.27;2.17;;;;;;;;;;4973124;28;20186;-73
2023/03/24 05:16:17;;;;;;;1.50;1.50;;;;;;;;;;4962846;28;20193;-73
2023/03/24 05:18:43;;;;;;;2.30;2.20;;;;;;;;;;4962592;28;20197;-73
2023/03/24 05:21:09;;;;;;;1.87;1.77;;;;;;;;;;4958164;28;20559;-74
2023/03/24 05:23:35;;;;;;;1.50;1.50;;;;;;;;;;4964885;28;20222;-72
2023/03/24 05:26:01;;;;;;;1.30;1.30;;;;;;;;;;4963470;28;20726;-73
2023/03/24 05:28:27;;;;;;;1.40;1.40;;;;;;;;;;4961015;28;20191;-73
2023/03/24 05:30:52;;;;;;;1.30;1.30;;;;;;;;;;4961193;28;20190;-73
2023/03/24 05:33:19;;;;;;;1.40;1.40;;;;;;;;;;4962023;28;20290;-73
2023/03/24 05:35:45;;;;;;;1.40;1.40;;;;;;;;;;4964298;28;20285;-73
2023/03/24 05:38:11;;;;;;;1.60;1.60;;;;;;;;;;4965895;28;20248;-73
2023/03/24 05:40:36;;;;;;;1.40;1.40;;;;;;;;;;4963221;28;20191;-73
2023/03/24 05:43:02;;;;;;;1.40;1.40;;;;;;;;;;4976498;28;20701;-73
2023/03/24 05:45:29;;;;;;;1.30;1.30;;;;;;;;;;4967560;28;20186;-73
2023/03/24 05:47:55;;;;;;;1.30;1.30;;;;;;;;;;4967777;28;20435;-73
2023/03/24 05:50:22;;;;;;;1.73;1.70;;;;;;;;;;4970462;28;20210;-73
2023/03/24 05:52:49;;;;;;;1.40;1.40;;;;;;;;;;4974571;28;20202;-72
2023/03/24 05:55:15;;;;;;;1.60;1.60;;;;;;;;;;4978362;28;20201;-73
2023/03/24 05:57:42;;;;;;;1.60;1.60;;;;;;;;;;4966161;28;20187;-73
2023/03/24 06:00:13;;;;;;;1.30;1.30;;;;;;;;;;4969595;28;20651;-72
2023/03/24 06:02:39;;;;;;;1.40;1.40;;;;;;;;;;4972233;28;20254;-73
2023/03/24 06:05:07;;;;;;;1.73;1.70;;;;;;;;;;4972938;28;20266;-73
2023/03/24 06:07:33;;;;;;;1.57;1.57;;;;;;;;;;4965286;28;20672;-71
2023/03/24 06:10:02;;;;;;;2.80;2.70;;;;;;;;;;4963541;28;21164;-71
2023/03/24 06:12:29;;;;;;;3.10;3.00;;;;;;;;;;4971254;28;20195;-72
2023/03/24 06:14:55;;;;;;;3.23;3.13;;;;;;;;;;4947924;28;20226;-71
2023/03/24 06:17:23;;;;;;;2.90;2.80;;;;;;;;;;4962391;28;25327;-72
2023/03/24 06:19:49;;;;;;;3.13;3.03;;;;;;;;;;4974524;28;21210;-72
2023/03/24 06:22:18;;;;;;;3.00;2.90;;;;;;;;;;4972118;28;20214;-71
2023/03/24 06:24:45;;;;;;;2.93;2.83;;;;;;;;;;4967464;28;20326;-71
2023/03/24 06:27:13;;;;;;;2.70;2.60;;;;;;;;;;4973713;28;20724;-72
2023/03/24 06:29:41;;;;;;;2.40;2.30;;;;;;;;;;4975540;28;20184;-71
2023/03/24 06:32:07;;;;;;;2.40;2.30;;;;;;;;;;4967417;28;20980;-71
2023/03/24 06:34:33;;;;;;;2.40;2.30;;;;;;;;;;4974337;28;20193;-72
2023/03/24 06:36:58;;;;;;;2.30;2.20;;;;;;;;;;4974347;28;20198;-71
2023/03/24 06:39:25;;;;;;;2.10;2.00;;;;;;;;;;4970356;28;20213;-70
2023/03/24 06:41:51;;;;;;;2.10;2.00;;;;;;;;;;4977414;28;20651;-71
2023/03/24 06:44:17;;;;;;;2.50;2.40;;;;;;;;;;4978116;28;20198;-72
2023/03/24 06:46:44;;;;;;;2.10;2.00;;;;;;;;;;4979130;28;20210;-72
2023/03/24 06:49:10;;;;;;;2.20;2.10;;;;;;;;;;4977388;28;20186;-71
2023/03/24 06:51:36;;;;;;;1.73;1.67;;;;;;;;;;4979977;28;20195;-71
2023/03/24 06:54:02;;;;;;;1.90;1.80;;;;;;;;;;4977515;28;20189;-72
2023/03/24 06:56:29;;;;;;;1.90;1.80;;;;;;;;;;4980583;28;20190;-72
2023/03/24 06:58:55;;;;;;;1.80;1.70;;;;;;;;;;4978022;28;20599;-71
2023/03/24 07:01:23;;;;;;;1.97;1.87;;;;;;;;;;4977886;28;20183;-72
2023/03/24 07:03:49;;;;;;;1.90;1.80;;;;;;;;;;4974958;28;20191;-70
2023/03/24 07:06:15;;;;;;;2.00;1.90;;;;;;;;;;4979022;28;21031;-72
2023/03/24 07:08:41;;;;;;;1.90;1.80;;;;;;;;;;4965828;28;20240;-72
2023/03/24 07:11:08;;;;;;;1.90;1.80;;;;;;;;;;4970758;28;20186;-72
2023/03/24 07:13:34;;;;;;;1.60;1.60;;;;;;;;;;4950149;28;20215;-71
2023/03/24 07:16:00;;;;;;;1.63;1.63;;;;;;;;;;4956229;28;20273;-72
2023/03/24 07:18:26;;;;;;;1.83;1.73;;;;;;;;;;4975735;28;20210;-71
2023/03/24 07:20:52;;;;;;;1.63;1.63;;;;;;;;;;4969439;28;20696;-71
2023/03/24 07:23:18;;;;;;;1.40;1.40;;;;;;;;;;4977310;28;20207;-71
2023/03/24 07:25:44;;;;;;;1.83;1.73;;;;;;;;;;4964631;28;20202;-71
2023/03/24 07:28:10;;;;;;;1.90;1.80;;;;;;;;;;4976780;28;20186;-71
2023/03/24 07:30:36;;;;;;;1.60;1.60;;;;;;;;;;4973043;28;20195;-70
2023/03/24 07:33:05;;;;;;;1.50;1.50;;;;;;;;;;4977601;28;20209;-71
2023/03/24 07:35:31;;;;;;;1.67;1.67;;;;;;;;;;4966425;28;20298;-72
2023/03/24 07:37:57;;;;;;;1.30;1.30;;;;;;;;;;4973806;28;20607;-71
2023/03/24 07:40:23;;;;;;;1.30;1.30;;;;;;;;;;4972090;28;20229;-70
2023/03/24 07:42:50;;;;;;;1.50;1.50;;;;;;;;;;4968788;28;20297;-70
2023/03/24 07:45:16;;;;;;;1.60;1.60;;;;;;;;;;4970924;28;20331;-72
2023/03/24 07:47:45;;;;;;;1.90;1.80;;;;;;;;;;4972701;28;20267;-71
2023/03/24 07:50:11;;;;;;;1.40;1.40;;;;;;;;;;4971191;28;20639;-71
2023/03/24 07:52:38;;;;;;;1.70;1.70;;;;;;;;;;4970114;28;20225;-71
2023/03/24 07:55:05;;;;;;;1.53;1.53;;;;;;;;;;4968991;28;20182;-71
2023/03/24 07:57:31;;;;;;;1.53;1.53;;;;;;;;;;4976719;28;20191;-72
2023/03/24 07:59:57;;;;;;;1.30;1.30;;;;;;;;;;4971461;28;20193;-70
2023/03/24 08:02:23;;;;;;;1.30;1.30;;;;;;;;;;4971660;28;20297;-72
2023/03/24 08:04:55;;;;;;;1.40;1.40;;;;;;;;;;4975743;28;20194;-71
2023/03/24 08:07:21;;;;;;;1.60;1.60;;;;;;;;;;4969727;28;20226;-73
2023/03/24 08:09:47;;;;;;;1.60;1.60;;;;;;;;;;4973267;28;20213;-72
2023/03/24 08:12:13;;;;;;;1.50;1.50;;;;;;;;;;4972476;28;20222;-71
2023/03/24 08:14:39;;;;;;;1.60;1.60;;;;;;;;;;4976117;28;20895;-72
2023/03/24 08:17:05;;;;;;;1.60;1.60;;;;;;;;;;4970349;28;20190;-70
2023/03/24 08:19:31;;;;;;;1.43;1.43;;;;;;;;;;4969303;28;20194;-72
2023/03/24 08:21:56;;;;;;;1.80;1.70;;;;;;;;;;4967415;28;20269;-72
2023/03/24 08:24:22;;;;;;;1.60;1.60;;;;;;;;;;4968592;28;20201;-72
2023/03/24 08:26:48;;;;;;;1.60;1.60;;;;;;;;;;4969196;28;20183;-72
2023/03/24 08:29:14;;;;;;;1.20;1.20;;;;;;;;;;4971243;28;20253;-72
2023/03/24 08:31:40;;;;;;;1.67;1.67;;;;;;;;;;4972838;28;20868;-71
2023/03/24 08:34:06;;;;;;;1.73;1.70;;;;;;;;;;4966805;28;20195;-73
2023/03/24 08:36:32;;;;;;;2.20;2.10;;;;;;;;;;4966820;28;20199;-72
2023/03/24 08:38:58;;;;;;;2.37;2.27;;;;;;;;;;4975684;28;20246;-72
2023/03/24 08:41:33;;;;;;;2.60;2.50;;;;;;;;;;4960728;28;20182;-70
2023/03/24 08:44:00;;;;;;;2.40;2.30;;;;;;;;;;4967796;28;20209;-71
2023/03/24 08:46:26;;;;;;;1.20;1.20;;;;;;;;;;4969797;28;20232;-72
2023/03/24 08:48:52;;;;;;;1.20;1.20;;;;;;;;;;4971576;28;20253;-70
2023/03/24 08:51:18;;;;;;;1.10;1.10;;;;;;;;;;4967865;28;20194;-70
2023/03/24 08:53:44;;;;;;;1.10;1.10;;;;;;;;;;4974925;28;20858;-72
2023/03/24 08:56:10;;;;;;;1.30;1.30;;;;;;;;;;4977813;28;20214;-69
2023/03/24 08:58:36;;;;;;;1.87;1.77;;;;;;;;;;4970739;28;20210;-72
2023/03/24 09:01:02;;;;;;;1.20;1.20;;;;;;;;;;4970192;28;20213;-72
2023/03/24 09:03:28;;;;;;;1.20;1.20;;;;;;;;;;4966295;28;20210;-71
2023/03/24 09:05:55;;;;;;;1.70;1.60;;;;;;;;;;4961287;28;20570;-70
2023/03/24 09:08:21;;;;;;;1.37;1.37;;;;;;;;;;4972265;28;20190;-70
2023/03/24 09:10:47;;;;;;;1.30;1.30;;;;;;;;;;4968197;28;20186;-71
2023/03/24 09:13:14;;;;;;;0.70;0.70;;;;;;;;;;4975748;28;20269;-72
2023/03/24 09:15:40;;;;;;;0.80;0.80;;;;;;;;;;4956177;28;20236;-72
2023/03/24 09:18:06;;;;;;;1.20;1.20;;;;;;;;;;4975219;28;20211;-72
2023/03/24 09:20:32;;;;;;;0.80;0.80;;;;;;;;;;4977536;28;20202;-72
2023/03/24 09:22:58;;;;;;;0.70;0.70;;;;;;;;;;4974089;28;20225;-72
2023/03/24 09:25:24;;;;;;;0.80;0.80;;;;;;;;;;4972931;28;20211;-72
2023/03/24 09:27:50;;;;;;;0.80;0.80;;;;;;;;;;4973357;28;20185;-72
2023/03/24 09:30:16;;;;;;;1.20;1.20;;;;;;;;;;4976348;28;20323;-72
2023/03/24 09:32:42;;;;;;;1.00;1.00;;;;;;;;;;4977946;28;20198;-71
2023/03/24 09:35:08;;;;;;;3.42;3.33;;;;;;;;;;4977567;28;20262;-71
2023/03/24 09:37:35;;;;;;;1.15;1.15;;;;;;;;;;4983663;28;20238;-73
2023/03/24 09:40:01;;;;;;;1.58;1.58;;;;;;;;;;4982586;28;20190;-71
2023/03/24 09:42:37;;;;;;;1.27;1.27;;;;;;;;;;4977146;28;20205;-71
2023/03/24 09:45:07;;;;;;;2.10;2.00;;;;;;;;;;4981706;28;20194;-72
2023/03/24 09:47:40;;;;;;;1.73;1.70;;;;;;;;;;4958963;28;20199;-70
2023/03/24 09:50:17;;;;;;;1.30;1.30;;;;;;;;;;4979204;28;20615;-70
2023/03/24 09:52:43;;;;;;;1.25;1.25;;;;;;;;;;4980776;28;20198;-72
2023/03/24 09:55:14;;;;;;;1.30;1.30;;;;;;;;;;4965114;28;20190;-71
2023/03/24 09:57:43;;;;;;;1.30;1.30;;;;;;;;;;4964775;28;20187;-69
2023/03/24 10:00:18;;;;;;;1.30;1.30;;;;;;;;;;4972386;28;20719;-72
2023/03/24 10:02:44;;;;;;;1.10;1.10;;;;;;;;;;4975785;28;20906;-71
2023/03/24 10:05:15;;;;;;;1.10;1.10;;;;;;;;;;4978111;28;20186;-72
2023/03/24 10:07:52;;;;;;;1.20;1.20;;;;;;;;;;4964716;28;20190;-72
2023/03/24 10:10:24;;;;;;;1.20;1.20;;;;;;;;;;4977672;28;20698;-70
2023/03/24 10:12:50;;;;;;;1.20;1.20;;;;;;;;;;4960825;28;20194;-71
2023/03/24 10:15:36;;;;;;;1.20;1.20;;;;;;;;;;4973061;28;20191;-71
2023/03/24 10:18:05;;;;;;;1.10;1.10;;;;;;;;;;4967592;28;20281;-71
2023/03/24 10:20:34;;;;;;;1.10;1.10;;;;;;;;;;4970955;28;20675;-71
2023/03/24 10:23:12;;;;;;;1.10;1.10;;;;;;;;;;4975745;28;20221;-73
2023/03/24 10:25:42;;;;;;;1.00;1.00;;;;;;;;;;4965212;28;20190;-73
2023/03/24 10:28:14;;;;;;;1.10;1.10;;;;;;;;;;4975204;28;20188;-71
2023/03/24 10:30:41;;;;;;;1.10;1.10;;;;;;;;;;4963529;28;20182;-70
2023/03/24 10:33:09;;;;;;;1.10;1.10;;;;;;;;;;4940366;28;20198;-71
2023/03/24 10:35:35;;;;;;;1.10;1.10;;;;;;;;;;4956410;28;20198;-72
2023/03/24 10:38:02;;;;;;;1.10;1.10;;;;;;;;;;4970863;28;20242;-72
2023/03/24 10:40:32;;;;;;;1.10;1.10;;;;;;;;;;4972669;28;20222;-71
2023/03/24 10:42:58;;;;;;;1.88;1.77;;;;;;;;;;4975298;28;20320;-71
2023/03/24 10:45:25;;;;;;;1.10;1.10;;;;;;;;;;4976092;28;20191;-71
2023/03/24 10:47:51;;;;;;;1.30;1.30;;;;;;;;;;4976073;28;20655;-71
2023/03/24 10:50:17;;;;;;;1.10;1.10;;;;;;;;;;4979365;28;20202;-71
2023/03/24 10:52:45;;;;;;;1.60;1.60;;;;;;;;;;4977367;28;20249;-71
2023/03/24 10:55:18;;;;;;;1.55;1.55;;;;;;;;;;4977414;28;20273;-72
2023/03/24 10:57:44;;;;;;;1.00;1.00;;;;;;;;;;4980559;28;20190;-70
2023/03/24 11:00:25;;;;;;;0.80;0.80;;;;;;;;;;4964145;28;20534;-72
2023/03/24 11:03:14;;;;;;;0.80;0.80;;;;;;;;;;4976873;28;20210;-71
2023/03/24 11:05:40;;;;;;;0.90;0.90;;;;;;;;;;4966370;28;20873;-71
2023/03/24 11:08:24;;;;;;;0.90;0.90;;;;;;;;;;4979217;28;20213;-71
2023/03/24 11:10:50;;;;;;;0.90;0.90;;;;;;;;;;4972266;28;20241;-71
2023/03/24 11:13:17;;;;;;;0.80;0.80;;;;;;;;;;4978791;28;20763;-72
2023/03/24 11:15:52;;;;;;;0.80;0.80;;;;;;;;;;4971554;28;20573;-73
2023/03/24 11:18:19;;;;;;;0.80;0.80;;;;;;;;;;4961709;28;20236;-71
2023/03/24 11:20:52;;;;;;;0.80;0.80;;;;;;;;;;4978774;28;20186;-72
2023/03/24 11:23:18;;;;;;;0.80;0.80;;;;;;;;;;4978127;28;20233;-69
2023/03/24 11:25:45;;;;;;;1.00;1.00;;;;;;;;;;4976190;28;20906;-72
2023/03/24 11:28:15;;;;;;;1.20;1.20;;;;;;;;;;4976976;28;20200;-72
2023/03/24 11:30:45;;;;;;;1.30;1.30;;;;;;;;;;4965419;28;20229;-72
2023/03/24 11:33:14;;;;;;;1.20;1.20;;;;;;;;;;4979413;28;20182;-70
2023/03/24 11:35:41;;;;;;;1.20;1.20;;;;;;;;;;4959311;28;20217;-71
2023/03/24 11:38:07;;;;;;;1.23;1.23;;;;;;;;;;4976774;28;21204;-71
2023/03/24 11:40:33;;;;;;;1.13;1.13;;;;;;;;;;4974680;28;20272;-72
2023/03/24 11:42:59;;;;;;;1.30;1.30;;;;;;;;;;4935649;28;20215;-72
2023/03/24 11:45:28;;;;;;;1.40;1.40;;;;;;;;;;4973734;28;20305;-70
2023/03/24 11:47:57;;;;;;;1.50;1.50;;;;;;;;;;4972715;28;20306;-71
2023/03/24 11:50:25;;;;;;;1.30;1.30;;;;;;;;;;4969670;28;20278;-70
2023/03/24 11:52:54;;;;;;;1.40;1.40;;;;;;;;;;4972166;28;20666;-71
2023/03/24 11:55:28;;;;;;;1.40;1.40;;;;;;;;;;4971584;28;20198;-71
2023/03/24 11:58:08;;;;;;;1.40;1.40;;;;;;;;;;4956717;28;20290;-70
2023/03/24 12:00:44;;;;;;;1.60;1.60;;;;;;;;;;4975733;28;20217;-72
2023/03/24 12:03:36;;;;;;;1.60;1.60;;;;;;;;;;4970578;28;20201;-73
2023/03/24 12:06:05;;;;;;;1.60;1.60;;;;;;;;;;4971330;28;20213;-72
2023/03/24 12:08:40;;;;;;;1.50;1.50;;;;;;;;;;4971995;28;20190;-71
2023/03/24 12:11:07;;;;;;;1.70;1.70;;;;;;;;;;4978079;28;20657;-70
2023/03/24 12:13:35;;;;;;;1.70;1.70;;;;;;;;;;4970950;28;20224;-71
2023/03/24 12:16:07;;;;;;;1.80;1.70;;;;;;;;;;4958869;28;20195;-68
2023/03/24 12:18:40;;;;;;;1.88;1.77;;;;;;;;;;4969797;28;20397;-72
2023/03/24 12:21:08;;;;;;;1.80;1.70;;;;;;;;;;4966859;28;20191;-72
2023/03/24 12:23:47;;;;;;;1.90;1.80;;;;;;;;;;4962848;28;20567;-70
2023/03/24 12:26:18;;;;;;;1.90;1.80;;;;;;;;;;4976260;28;20187;-70
2023/03/24 12:29:04;;;;;;;1.85;1.75;;;;;;;;;;4970062;28;20213;-70
2023/03/24 12:31:40;;;;;;;1.70;1.70;;;;;;;;;;4973078;28;20282;-71
2023/03/24 12:34:26;;;;;;;1.83;1.73;;;;;;;;;;4971922;28;20195;-71
2023/03/24 12:36:55;;;;;;;1.80;1.70;;;;;;;;;;4974063;28;20185;-71
2023/03/24 12:39:27;;;;;;;1.80;1.70;;;;;;;;;;4971385;28;20305;-72
2023/03/24 12:42:13;;;;;;;1.90;1.80;;;;;;;;;;4973351;28;20187;-72
2023/03/24 12:44:48;;;;;;;1.90;1.80;;;;;;;;;;4962191;28;20194;-70
2023/03/24 12:47:20;;;;;;;2.03;1.92;;;;;;;;;;4969774;28;20186;-72
2023/03/24 12:50:04;;;;;;;1.90;1.80;;;;;;;;;;4974809;28;20187;-71
2023/03/24 12:52:43;;;;;;;2.00;1.90;;;;;;;;;;4967023;28;20639;-70
2023/03/24 12:55:09;;;;;;;1.90;1.80;;;;;;;;;;4969714;28;20190;-71
2023/03/24 12:57:37;;;;;;;1.88;1.77;;;;;;;;;;4972917;28;20194;-72
2023/03/24 13:00:05;;;;;;;2.00;1.90;;;;;;;;;;4980449;28;20193;-72
2023/03/24 13:02:33;;;;;;;2.00;1.90;;;;;;;;;;4976361;28;21030;-72
2023/03/24 13:05:04;;;;;;;2.30;2.20;;;;;;;;;;4943139;28;20684;-72
2023/03/24 13:07:30;;;;;;;2.40;2.30;;;;;;;;;;4963266;28;20674;-73
2023/03/24 13:10:04;;;;;;;2.30;2.20;;;;;;;;;;4968389;28;20179;-73
2023/03/24 13:12:40;;;;;;;2.50;2.40;;;;;;;;;;4958252;28;20189;-72
2023/03/24 13:15:16;;;;;;;2.50;2.40;;;;;;;;;;4973099;28;20202;-72
2023/03/24 13:17:47;;;;;;;2.60;2.50;;;;;;;;;;4976572;28;21104;-71
2023/03/24 13:20:14;;;;;;;2.70;2.60;;;;;;;;;;4978468;28;20194;-72
2023/03/24 13:22:40;;;;;;;2.80;2.70;;;;;;;;;;4971809;28;20222;-72
2023/03/24 13:25:08;;;;;;;2.60;2.50;;;;;;;;;;4975209;28;20278;-71
2023/03/24 13:27:37;;;;;;;2.60;2.50;;;;;;;;;;4960004;28;20673;-72
2023/03/24 13:30:04;;;;;;;2.80;2.70;;;;;;;;;;4962583;28;20194;-72
2023/03/24 13:32:30;;;;;;;2.78;2.67;;;;;;;;;;4976727;28;20193;-70
2023/03/24 13:34:56;;;;;;;3.00;2.90;;;;;;;;;;4977468;28;20595;-70
2023/03/24 13:37:23;;;;;;;3.00;2.90;;;;;;;;;;4976728;28;20187;-70
2023/03/24 13:39:50;;;;;;;3.00;2.90;;;;;;;;;;4971456;28;20202;-69
2023/03/24 13:42:43;;;;;;;3.00;2.90;;;;;;;;;;4968175;28;20221;-71
2023/03/24 13:45:21;;;;;;;3.00;2.90;;;;;;;;;;4966092;28;20194;-71
2023/03/24 13:47:53;;;;;;;3.50;3.40;;;;;;;;;;4963990;28;20190;-71
2023/03/24 13:50:19;;;;;;;3.40;3.30;;;;;;;;;;4977540;28;20256;-73
2023/03/24 13:52:46;;;;;;;3.10;3.00;;;;;;;;;;4975990;28;20250;-72
2023/03/24 13:55:13;;;;;;;2.80;2.70;;;;;;;;;;4977888;28;20296;-72
2023/03/24 13:57:40;;;;;;;2.80;2.70;;;;;;;;;;4965850;28;20782;-74
2023/03/24 14:00:16;;;;;;;2.70;2.60;;;;;;;;;;4964344;28;20713;-73
2023/03/24 14:02:48;;;;;;;2.80;2.70;;;;;;;;;;4949707;28;20285;-72
2023/03/24 14:05:33;;;;;;;3.00;2.90;;;;;;;;;;4954687;28;20179;-72
2023/03/24 14:08:00;;;;;;;3.20;3.10;;;;;;;;;;4970771;28;20233;-73
2023/03/24 14:10:26;;;;;;;3.40;3.30;;;;;;;;;;4961828;28;20269;-73
2023/03/24 14:13:00;;;;;;;3.20;3.10;;;;;;;;;;4969144;28;20269;-72
2023/03/24 14:15:33;;;;;;;3.40;3.30;;;;;;;;;;4956211;28;20544;-72
2023/03/24 14:18:16;;;;;;;3.30;3.20;;;;;;;;;;4966014;28;20690;-72
2023/03/24 14:20:44;;;;;;;3.03;2.92;;;;;;;;;;4967100;28;20214;-71
2023/03/24 14:23:19;;;;;;;3.10;3.00;;;;;;;;;;4953527;28;20282;-74
2023/03/24 14:25:45;;;;;;;3.10;3.00;;;;;;;;;;4958158;28;20174;-73
2023/03/24 14:28:19;;;;;;;3.20;3.10;;;;;;;;;;4952322;28;20194;-73
2023/03/24 14:30:54;;;;;;;3.00;2.90;;;;;;;;;;4970433;28;20178;-73
2023/03/24 14:33:23;;;;;;;2.80;2.70;;;;;;;;;;4967960;28;20222;-72
2023/03/24 14:35:50;;;;;;;3.08;2.97;;;;;;;;;;4952433;28;20489;-74
2023/03/24 14:38:17;;;;;;;3.10;3.00;;;;;;;;;;4970058;28;20744;-72
2023/03/24 14:40:43;;;;;;;3.25;3.15;;;;;;;;;;4975241;28;20195;-73
2023/03/24 14:43:16;;;;;;;3.00;2.90;;;;;;;;;;4977895;28;20567;-73
2023/03/24 14:45:52;;;;;;;2.75;2.65;;;;;;;;;;4968321;28;20219;-72
2023/03/24 14:48:26;;;;;;;3.00;2.90;;;;;;;;;;4962917;28;20276;-72
2023/03/24 14:50:52;;;;;;;3.00;2.90;;;;;;;;;;4949924;28;20210;-71
2023/03/24 14:53:19;;;;;;;3.00;2.90;;;;;;;;;;4962830;28;20222;-71
2023/03/24 14:55:45;;;;;;;3.00;2.90;;;;;;;;;;4973136;28;20281;-71